createdAt,value
2022-09-22T00:03:41.269Z,3.55
2022-09-22T00:06:14.508Z,3.42
2022-09-22T00:08:44.937Z,3.53
2022-09-22T00:11:37.683Z,3.63
2022-09-22T00:14:13.014Z,4.20
2022-09-22T00:16:46.644Z,3.50
2022-09-22T00:19:25.652Z,3.90
2022-09-22T00:21:55.986Z,3.45
2022-09-22T00:24:26.511Z,3.33
2022-09-22T00:26:57.548Z,3.15
2022-09-22T00:29:26.049Z,3.58
2022-09-22T00:31:56.169Z,2.92
2022-09-22T00:34:26.756Z,3.17
2022-09-22T00:36:56.408Z,2.80
2022-09-22T00:39:24.384Z,3.03
2022-09-22T00:41:55.264Z,3.17
2022-09-22T00:44:40.287Z,3.30
2022-09-22T00:47:35.398Z,2.97
2022-09-22T00:50:19.674Z,3.00
2022-09-22T00:53:12.936Z,3.20
2022-09-22T00:56:01.538Z,2.80
2022-09-22T00:58:33.854Z,3.30
2022-09-22T01:01:05.579Z,3.33
2022-09-22T01:03:33.134Z,3.35
2022-09-22T01:06:05.923Z,3.42
2022-09-22T01:08:34.324Z,3.65
2022-09-22T01:11:02.130Z,3.25
2022-09-22T01:13:49.287Z,3.05
2022-09-22T01:16:53.936Z,3.90
2022-09-22T01:19:46.287Z,3.50
2022-09-22T01:22:23.737Z,3.40
2022-09-22T01:25:01.489Z,3.50
2022-09-22T01:28:20.139Z,3.10
2022-09-22T01:31:03.790Z,3.22
2022-09-22T01:34:04.475Z,3.30
2022-09-22T01:36:41.173Z,3.28
2022-09-22T01:39:39.270Z,3.70
2022-09-22T01:42:13.603Z,3.15
2022-09-22T01:44:50.729Z,3.25
2022-09-22T01:47:41.187Z,3.15
2022-09-22T01:50:16.589Z,3.20
2022-09-22T01:52:45.681Z,3.10
2022-09-22T01:55:22.036Z,3.08
2022-09-22T01:57:55.481Z,3.17
2022-09-22T02:00:27.386Z,3.42
2022-09-22T02:03:08.693Z,2.92
2022-09-22T02:05:49.752Z,3.00
2022-09-22T02:08:29.143Z,2.72
2022-09-22T02:11:01.212Z,3.17
2022-09-22T02:13:29.048Z,2.80
2022-09-22T02:16:02.423Z,2.78
2022-09-22T02:18:50.376Z,2.95
2022-09-22T02:21:18.828Z,3.00
2022-09-22T02:23:47.880Z,3.40
2022-09-22T02:26:26.782Z,3.67
2022-09-22T02:29:03.790Z,3.10
2022-09-22T02:31:34.522Z,3.40
2022-09-22T02:34:02.814Z,3.08
2022-09-22T02:36:55.318Z,3.15
2022-09-22T02:39:39.049Z,3.33
2022-09-22T02:42:24.875Z,3.25
2022-09-22T02:45:07.123Z,3.20
2022-09-22T02:47:37.468Z,4.43
2022-09-22T02:50:09.564Z,3.25
2022-09-22T02:52:38.458Z,3.85
2022-09-22T02:55:08.076Z,3.95
2022-09-22T02:57:35.835Z,3.95
2022-09-22T03:00:06.450Z,3.42
2022-09-22T03:02:33.665Z,3.70
2022-09-22T03:05:01.673Z,3.40
2022-09-22T03:07:28.953Z,3.42
2022-09-22T03:09:56.066Z,3.17
2022-09-22T03:12:27.147Z,3.63
2022-09-22T03:14:55.227Z,4.05
2022-09-22T03:17:25.823Z,3.70
2022-09-22T03:22:24.231Z,3.70
2022-09-22T03:24:52.744Z,4.15
2022-09-22T03:27:20.112Z,3.78
2022-09-22T03:29:47.327Z,3.58
2022-09-22T03:32:14.279Z,3.80
2022-09-22T03:34:42.519Z,3.65
2022-09-22T03:37:10.014Z,3.47
2022-09-22T03:39:37.588Z,3.42
2022-09-22T03:42:04.962Z,3.58
2022-09-22T03:44:32.492Z,3.55
2022-09-22T03:47:00.496Z,3.53
2022-09-22T03:49:28.656Z,3.45
2022-09-22T03:51:57.076Z,3.17
2022-09-22T03:54:24.676Z,3.55
2022-09-22T03:56:52.216Z,3.42
2022-09-22T03:59:19.514Z,3.30
2022-09-22T04:01:47.809Z,3.63
2022-09-22T04:04:15.560Z,3.13
2022-09-22T04:06:43.175Z,3.28
2022-09-22T04:09:10.826Z,3.50
2022-09-22T04:11:38.197Z,3.55
2022-09-22T04:14:05.645Z,3.35
2022-09-22T04:16:33.141Z,3.83
2022-09-22T04:19:05.336Z,3.25
2022-09-22T04:21:33.060Z,3.40
2022-09-22T04:24:00.922Z,3.65
2022-09-22T04:26:28.480Z,3.40
2022-09-22T04:28:55.825Z,3.65
2022-09-22T04:31:25.308Z,3.50
2022-09-22T04:33:53.497Z,3.35
2022-09-22T04:36:20.857Z,3.95
2022-09-22T04:38:48.834Z,3.60
2022-09-22T04:41:16.173Z,4.07
2022-09-22T04:43:44.055Z,3.92
2022-09-22T04:46:13.209Z,4.30
2022-09-22T04:48:40.781Z,4.07
2022-09-22T04:51:08.070Z,3.92
2022-09-22T04:53:35.807Z,3.97
2022-09-22T04:56:02.969Z,4.50
2022-09-22T04:58:30.406Z,4.47
2022-09-22T05:01:03.581Z,5.78
2022-09-22T05:03:31.401Z,4.03
2022-09-22T05:05:59.583Z,4.15
2022-09-22T05:08:26.836Z,4.82
2022-09-22T05:10:56.857Z,4.63
2022-09-22T05:13:25.885Z,4.70
2022-09-22T05:15:59.988Z,4.75
2022-09-22T05:18:27.207Z,5.13
2022-09-22T05:20:55.452Z,5.00
2022-09-22T05:23:26.180Z,5.55
2022-09-22T05:25:55.040Z,5.22
2022-09-22T05:28:24.423Z,5.50
2022-09-22T05:30:53.948Z,5.82
2022-09-22T05:33:21.644Z,5.82
2022-09-22T05:35:50.248Z,5.78
2022-09-22T05:38:17.309Z,6.25
2022-09-22T05:40:48.012Z,6.00
2022-09-22T05:45:44.819Z,6.45
2022-09-22T05:48:12.224Z,5.90
2022-09-22T05:50:39.896Z,6.55
2022-09-22T05:53:10.806Z,6.00
2022-09-22T05:55:39.789Z,7.35
2022-09-22T05:58:12.032Z,6.65
2022-09-22T06:00:41.085Z,7.47
2022-09-22T06:03:08.592Z,7.65
2022-09-22T06:05:38.589Z,7.60
2022-09-22T06:08:07.977Z,7.25
2022-09-22T06:10:36.847Z,6.55
2022-09-22T06:13:06.190Z,5.55
2022-09-22T06:15:35.842Z,6.28
2022-09-22T06:18:07.431Z,5.85
2022-09-22T06:20:38.492Z,5.47
2022-09-22T06:23:05.649Z,5.10
2022-09-22T06:25:33.015Z,4.90
2022-09-22T06:28:05.302Z,5.50
2022-09-22T06:30:34.918Z,5.00
2022-09-22T06:33:06.185Z,5.83
2022-09-22T06:35:43.307Z,5.45
2022-09-22T06:38:15.099Z,5.95
2022-09-22T06:40:43.444Z,7.90
2022-09-22T06:43:24.677Z,7.68
2022-09-22T06:45:53.532Z,8.10
2022-09-22T06:48:24.609Z,8.43
2022-09-22T06:50:54.809Z,9.52
2022-09-22T06:53:27.135Z,9.68
2022-09-22T06:55:54.956Z,9.77
2022-09-22T06:58:24.281Z,11.20
2022-09-22T07:00:53.816Z,11.25
2022-09-22T07:03:26.605Z,11.57
2022-09-22T07:06:01.452Z,12.40
2022-09-22T07:08:31.100Z,11.85
2022-09-22T07:11:02.469Z,14.20
2022-09-22T07:13:32.239Z,14.00
2022-09-22T07:16:01.670Z,17.15
2022-09-22T07:18:30.524Z,17.80
2022-09-22T07:21:12.388Z,19.15
2022-09-22T07:23:41.328Z,22.83
2022-09-22T07:26:16.211Z,22.88
2022-09-22T07:28:46.941Z,21.52
2022-09-22T07:31:15.435Z,21.92
2022-09-22T07:33:44.934Z,22.17
2022-09-22T07:36:19.473Z,20.80
2022-09-22T07:38:54.602Z,21.33
2022-09-22T07:41:43.339Z,20.58
2022-09-22T07:44:31.384Z,19.73
2022-09-22T07:47:00.197Z,19.33
2022-09-22T07:49:30.211Z,19.05
2022-09-22T07:51:58.220Z,19.13
2022-09-22T07:54:27.008Z,18.98
2022-09-22T07:57:04.699Z,17.98
2022-09-22T07:59:32.324Z,17.88
2022-09-22T08:02:00.278Z,16.77
2022-09-22T08:04:32.196Z,16.02
2022-09-22T08:06:59.336Z,15.45
2022-09-22T08:09:26.963Z,14.70
2022-09-22T08:11:55.346Z,15.10
2022-09-22T08:14:24.319Z,15.05
2022-09-22T08:16:54.089Z,14.13
2022-09-22T08:19:24.895Z,13.80
2022-09-22T08:21:54.688Z,13.30
2022-09-22T08:24:24.023Z,12.80
2022-09-22T08:26:56.553Z,11.70
2022-09-22T08:29:25.474Z,10.23
2022-09-22T08:31:54.448Z,11.13
2022-09-22T08:34:23.532Z,12.60
2022-09-22T08:36:50.737Z,11.90
2022-09-22T08:39:18.522Z,11.40
2022-09-22T08:41:48.417Z,12.15
2022-09-22T08:44:37.512Z,13.45
2022-09-22T08:47:06.139Z,12.95
2022-09-22T08:50:01.961Z,14.13
2022-09-22T08:52:41.105Z,13.07
2022-09-22T08:55:25.136Z,14.98
2022-09-22T08:58:23.619Z,13.00
2022-09-22T09:01:16.817Z,12.63
2022-09-22T09:04:11.382Z,13.43
2022-09-22T09:06:47.488Z,12.15
2022-09-22T09:09:27.274Z,12.57
2022-09-22T09:12:06.933Z,11.93
2022-09-22T09:14:59.147Z,10.98
2022-09-22T09:17:33.804Z,10.10
2022-09-22T09:20:17.680Z,10.15
2022-09-22T09:22:56.249Z,10.13
2022-09-22T09:25:39.094Z,9.90
2022-09-22T09:28:13.479Z,10.02
2022-09-22T09:30:52.431Z,9.85
2022-09-22T09:33:38.288Z,9.70
2022-09-22T09:38:50.957Z,9.27
2022-09-22T09:41:31.891Z,8.07
2022-09-22T09:44:00.545Z,9.00
2022-09-22T09:47:11.795Z,9.70
2022-09-22T09:49:39.090Z,8.55
2022-09-22T09:52:14.977Z,8.38
2022-09-22T09:54:44.361Z,7.85
2022-09-22T09:57:14.148Z,6.93
2022-09-22T10:00:02.440Z,6.90
2022-09-22T10:02:48.935Z,6.15
2022-09-22T10:05:16.772Z,5.95
2022-09-22T10:07:46.908Z,6.18
2022-09-22T10:10:30.046Z,6.10
2022-09-22T10:13:06.284Z,5.85
2022-09-22T10:15:39.422Z,6.68
2022-09-22T10:18:27.088Z,6.63
2022-09-22T10:21:07.482Z,5.68
2022-09-22T10:23:35.013Z,5.68
2022-09-22T10:26:26.657Z,5.10
2022-09-22T10:29:12.958Z,5.90
2022-09-22T10:31:42.152Z,5.43
2022-09-22T10:34:49.805Z,5.05
2022-09-22T10:37:30.624Z,5.10
2022-09-22T10:40:03.767Z,5.32
2022-09-22T10:42:43.875Z,5.38
2022-09-22T10:45:14.259Z,6.00
2022-09-22T10:50:48.994Z,4.10
2022-09-22T10:53:32.726Z,4.30
2022-09-22T10:56:15.598Z,4.05
2022-09-22T10:59:02.553Z,4.10
2022-09-22T11:01:55.152Z,6.35
2022-09-22T11:04:25.648Z,4.95
2022-09-22T11:07:35.966Z,4.75
2022-09-22T11:10:41.668Z,4.78
2022-09-22T11:13:42.128Z,4.38
2022-09-22T11:19:14.786Z,3.90
2022-09-22T11:21:54.538Z,4.00
2022-09-22T11:25:00.660Z,3.27
2022-09-22T11:27:40.166Z,4.90
2022-09-22T11:30:16.227Z,4.30
2022-09-22T11:32:43.798Z,2.83
2022-09-22T11:35:23.457Z,3.05
2022-09-22T11:38:14.182Z,3.90
2022-09-22T11:41:02.015Z,3.80
2022-09-22T11:43:41.990Z,3.60
2022-09-22T11:46:33.599Z,3.95
2022-09-22T11:49:13.162Z,3.40
2022-09-22T11:51:40.791Z,2.90
2022-09-22T11:54:15.293Z,2.92
2022-09-22T11:56:47.166Z,2.88
2022-09-22T11:59:43.656Z,3.25
2022-09-22T12:02:20.613Z,2.63
2022-09-22T12:05:12.107Z,2.15
2022-09-22T12:10:32.699Z,2.80
2022-09-22T12:13:02.910Z,2.97
2022-09-22T12:15:54.628Z,2.28
2022-09-22T12:18:58.802Z,3.00
2022-09-22T12:21:43.488Z,2.53
2022-09-22T12:24:12.407Z,2.45
2022-09-22T12:26:41.504Z,2.17
2022-09-22T12:29:10.899Z,2.13
2022-09-22T12:31:40.478Z,2.37
2022-09-22T12:34:16.654Z,2.50
2022-09-22T12:36:44.402Z,2.30
2022-09-22T12:39:23.885Z,2.00
2022-09-22T12:41:58.027Z,2.13
2022-09-22T12:44:44.734Z,2.72
2022-09-22T12:47:18.751Z,1.85
2022-09-22T12:49:52.151Z,2.90
2022-09-22T12:52:38.873Z,2.13
2022-09-22T12:55:25.092Z,1.88
2022-09-22T12:57:53.700Z,2.75
2022-09-22T13:00:25.020Z,2.42
2022-09-22T13:02:56.498Z,2.50
2022-09-22T13:05:27.240Z,2.00
2022-09-22T13:07:56.007Z,2.20
2022-09-22T13:10:25.027Z,2.15
2022-09-22T13:13:10.384Z,2.00
2022-09-22T13:15:49.839Z,2.13
2022-09-22T13:18:33.127Z,2.15
2022-09-22T13:21:02.381Z,2.08
2022-09-22T13:23:31.364Z,1.92
2022-09-22T13:26:13.984Z,2.17
2022-09-22T13:28:42.269Z,1.90
2022-09-22T13:31:15.046Z,2.03
2022-09-22T13:33:42.672Z,1.88
2022-09-22T13:36:15.070Z,1.92
2022-09-22T13:38:43.688Z,1.80
2022-09-22T13:41:18.065Z,1.65
2022-09-22T13:43:48.468Z,1.83
2022-09-22T13:46:25.627Z,1.70
2022-09-22T13:48:55.159Z,2.00
2022-09-22T13:51:25.023Z,1.88
2022-09-22T13:53:54.547Z,1.60
2022-09-22T13:56:23.684Z,1.83
2022-09-22T13:58:53.629Z,2.05
2022-09-22T14:01:25.423Z,1.58
2022-09-22T14:03:54.436Z,1.85
2022-09-22T14:06:23.437Z,2.00
2022-09-22T14:08:52.479Z,1.80
2022-09-22T14:11:23.404Z,2.00
2022-09-22T14:13:58.456Z,1.88
2022-09-22T14:16:35.047Z,1.60
2022-09-22T14:19:15.608Z,1.92
2022-09-22T14:21:49.633Z,2.00
2022-09-22T14:24:17.329Z,2.22
2022-09-22T14:26:50.572Z,2.13
2022-09-22T14:29:19.804Z,2.40
2022-09-22T14:31:49.721Z,2.00
2022-09-22T14:34:19.432Z,2.10
2022-09-22T14:36:47.993Z,2.65
2022-09-22T14:39:20.464Z,1.80
2022-09-22T14:41:53.170Z,2.00
2022-09-22T14:44:35.573Z,2.20
2022-09-22T14:47:11.740Z,2.08
2022-09-22T14:49:44.686Z,2.38
2022-09-22T14:52:32.706Z,1.98
2022-09-22T14:55:03.236Z,2.67
2022-09-22T14:57:34.848Z,2.75
2022-09-22T15:00:22.330Z,2.38
2022-09-22T15:02:53.608Z,2.50
2022-09-22T15:05:29.871Z,2.30
2022-09-22T15:07:58.537Z,2.20
2022-09-22T15:10:30.671Z,1.92
2022-09-22T15:13:19.438Z,1.90
2022-09-22T15:15:48.061Z,1.50
2022-09-22T15:18:22.446Z,1.67
2022-09-22T15:21:00.335Z,1.88
2022-09-22T15:23:31.762Z,2.03
2022-09-22T15:26:06.582Z,1.70
2022-09-22T15:28:41.598Z,1.52
2022-09-22T15:31:11.989Z,1.58
2022-09-22T15:36:16.069Z,1.83
2022-09-22T15:38:44.150Z,1.50
2022-09-22T15:41:13.223Z,1.48
2022-09-22T15:43:41.455Z,1.25
2022-09-22T15:46:19.448Z,1.70
2022-09-22T15:48:47.598Z,1.70
2022-09-22T15:51:15.972Z,1.42
2022-09-22T15:53:43.609Z,1.80
2022-09-22T15:56:19.112Z,1.30
2022-09-22T15:58:48.044Z,1.20
2022-09-22T16:01:19.070Z,1.52
2022-09-22T16:03:46.947Z,1.80
2022-09-22T16:06:16.602Z,1.80
2022-09-22T16:08:46.919Z,1.55
2022-09-22T16:11:16.824Z,1.50
2022-09-22T16:13:44.658Z,1.55
2022-09-22T16:16:13.214Z,1.67
2022-09-22T16:18:42.152Z,1.30
2022-09-22T16:21:26.500Z,1.38
2022-09-22T16:24:01.661Z,1.55
2022-09-22T16:26:32.354Z,1.40
2022-09-22T16:29:03.387Z,1.25
2022-09-22T16:31:31.308Z,1.33
2022-09-22T16:34:00.588Z,1.40
2022-09-22T16:36:33.494Z,1.10
2022-09-22T16:39:04.190Z,0.98
2022-09-22T16:41:33.491Z,0.95
2022-09-22T16:44:01.800Z,1.30
2022-09-22T16:46:30.833Z,1.20
2022-09-22T16:49:06.176Z,1.20
2022-09-22T16:51:38.990Z,1.17
2022-09-22T16:54:08.138Z,1.13
2022-09-22T16:56:38.781Z,1.10
2022-09-22T16:59:08.037Z,0.93
2022-09-22T17:01:37.846Z,0.80
2022-09-22T17:04:07.641Z,0.82
2022-09-22T17:06:36.314Z,1.10
2022-09-22T17:09:04.493Z,1.23
2022-09-22T17:11:35.675Z,1.40
2022-09-22T17:14:12.150Z,1.13
2022-09-22T17:16:41.755Z,1.45
2022-09-22T17:19:15.895Z,1.42
2022-09-22T17:21:44.327Z,1.10
2022-09-22T17:24:12.892Z,1.40
2022-09-22T17:26:41.491Z,1.40
2022-09-22T17:29:19.917Z,1.27
2022-09-22T17:31:52.086Z,1.70
2022-09-22T17:34:20.127Z,1.88
2022-09-22T17:36:47.542Z,1.50
2022-09-22T17:39:16.546Z,1.60
2022-09-22T17:41:48.867Z,2.15
2022-09-22T17:44:24.278Z,2.10
2022-09-22T17:47:12.451Z,1.60
2022-09-22T17:49:59.288Z,1.52
2022-09-22T17:52:30.085Z,1.65
2022-09-22T17:55:07.739Z,1.83
2022-09-22T17:57:42.835Z,1.60
2022-09-22T18:00:21.014Z,1.50
2022-09-22T18:02:53.786Z,1.67
2022-09-22T18:05:27.101Z,1.50
2022-09-22T18:07:58.611Z,1.70
2022-09-22T18:10:35.308Z,1.58
2022-09-22T18:13:04.405Z,1.50
2022-09-22T18:15:31.838Z,1.45
2022-09-22T18:17:59.084Z,1.25
2022-09-22T18:20:28.013Z,1.90
2022-09-22T18:22:58.983Z,1.45
2022-09-22T18:25:28.322Z,1.90
2022-09-22T18:27:56.448Z,1.58
2022-09-22T18:30:24.548Z,1.60
2022-09-22T18:32:54.484Z,1.60
2022-09-22T18:35:23.794Z,1.83
2022-09-22T18:37:52.919Z,2.30
2022-09-22T18:40:20.447Z,2.25
2022-09-22T18:42:48.432Z,2.15
2022-09-22T18:45:15.946Z,1.80
2022-09-22T18:47:44.578Z,1.83
2022-09-22T18:50:12.809Z,2.00
2022-09-22T18:52:43.357Z,1.80
2022-09-22T18:57:39.724Z,1.88
2022-09-22T19:00:07.583Z,2.60
2022-09-22T19:02:34.965Z,3.60
2022-09-22T19:05:03.961Z,3.50
2022-09-22T19:07:43.235Z,5.10
2022-09-22T19:10:13.717Z,9.70
2022-09-22T19:12:41.663Z,15.77
2022-09-22T19:15:14.673Z,3.00
2022-09-22T19:17:45.934Z,2.10
2022-09-22T19:20:17.432Z,2.03
2022-09-22T19:22:47.283Z,2.33
2022-09-22T19:25:16.237Z,3.38
2022-09-22T19:27:46.393Z,6.20
2022-09-22T19:30:14.607Z,7.20
2022-09-22T19:32:43.067Z,5.55
2022-09-22T19:35:10.537Z,4.45
2022-09-22T19:37:38.755Z,4.70
2022-09-22T19:40:08.626Z,4.50
2022-09-22T19:42:39.996Z,4.85
2022-09-22T19:45:09.206Z,4.93
2022-09-22T19:47:41.742Z,5.47
2022-09-22T19:50:10.200Z,4.90
2022-09-22T19:52:38.684Z,4.90
2022-09-22T19:55:07.167Z,4.78
2022-09-22T19:57:38.614Z,4.57
2022-09-22T20:00:18.359Z,4.82
2022-09-22T20:02:45.839Z,4.07
2022-09-22T20:05:22.422Z,3.58
2022-09-22T20:07:50.233Z,4.28
2022-09-22T20:10:19.555Z,4.47
2022-09-22T20:12:50.682Z,4.05
2022-09-22T20:15:18.839Z,3.17
2022-09-22T20:17:47.301Z,3.17
2022-09-22T20:20:22.115Z,2.92
2022-09-22T20:23:01.693Z,3.42
2022-09-22T20:25:32.765Z,3.03
2022-09-22T20:28:00.767Z,3.15
2022-09-22T20:30:28.055Z,3.40
2022-09-22T20:32:56.028Z,2.80
2022-09-22T20:35:29.880Z,3.05
2022-09-22T20:37:58.566Z,2.75
2022-09-22T20:40:26.302Z,3.15
2022-09-22T20:42:55.024Z,3.00
2022-09-22T20:45:25.487Z,3.38
2022-09-22T20:47:56.282Z,2.88
2022-09-22T20:50:24.416Z,2.97
2022-09-22T20:52:52.965Z,2.90
2022-09-22T20:55:20.627Z,3.08
2022-09-22T20:57:47.793Z,3.30
2022-09-22T21:00:16.116Z,3.10
2022-09-22T21:02:43.648Z,2.97
2022-09-22T21:05:10.814Z,3.50
2022-09-22T21:07:38.347Z,3.05
2022-09-22T21:10:24.264Z,3.58
2022-09-22T21:12:55.405Z,3.40
2022-09-22T21:15:25.863Z,3.63
2022-09-22T21:17:55.494Z,3.50
2022-09-22T21:20:24.148Z,4.18
2022-09-22T21:22:54.847Z,4.13
2022-09-22T21:25:25.190Z,4.07
2022-09-22T21:27:53.797Z,3.67
2022-09-22T21:30:21.004Z,4.07
2022-09-22T21:32:50.165Z,4.00
2022-09-22T21:35:18.531Z,3.70
2022-09-22T21:37:45.661Z,3.80
2022-09-22T21:40:13.445Z,3.55
2022-09-22T21:42:40.585Z,4.05
2022-09-22T21:45:08.492Z,4.00
2022-09-22T21:47:35.696Z,3.70
2022-09-22T21:50:05.669Z,3.75
2022-09-22T21:52:32.837Z,3.83
2022-09-22T21:55:05.030Z,3.45
2022-09-22T21:57:32.222Z,3.97
2022-09-22T21:59:59.436Z,4.07
2022-09-22T22:02:26.732Z,3.40
2022-09-22T22:04:55.653Z,4.50
2022-09-22T22:07:23.485Z,4.65
2022-09-22T22:09:50.900Z,5.00
2022-09-22T22:12:23.852Z,4.88
2022-09-22T22:14:54.358Z,4.57
2022-09-22T22:17:21.951Z,4.82
2022-09-22T22:19:49.155Z,4.25
2022-09-22T22:22:19.127Z,4.15
2022-09-22T22:24:48.769Z,4.70
2022-09-22T22:27:17.305Z,5.10
2022-09-22T22:29:48.409Z,4.60
2022-09-22T22:32:15.621Z,4.85
2022-09-22T22:34:42.818Z,5.00
2022-09-22T22:37:10.923Z,4.78
2022-09-22T22:39:38.546Z,4.60
2022-09-22T22:42:06.583Z,3.78
2022-09-22T22:44:35.232Z,4.60
2022-09-22T22:47:02.357Z,4.90
2022-09-22T22:49:29.335Z,5.43
2022-09-22T22:51:56.881Z,4.60
2022-09-22T22:54:23.948Z,5.15
2022-09-22T22:56:53.517Z,4.20
2022-09-22T22:59:24.408Z,3.50
2022-09-22T23:01:52.724Z,4.20
2022-09-22T23:04:23.702Z,4.00
2022-09-22T23:06:52.312Z,3.85
2022-09-22T23:09:20.001Z,4.03
2022-09-22T23:11:47.639Z,4.55
2022-09-22T23:14:16.217Z,4.05
2022-09-22T23:16:46.057Z,4.28
2022-09-22T23:19:18.552Z,3.65
2022-09-22T23:21:47.077Z,4.20
2022-09-22T23:24:16.876Z,3.50
2022-09-22T23:26:45.933Z,4.03
2022-09-22T23:29:13.455Z,3.22
2022-09-22T23:31:40.605Z,3.38
2022-09-22T23:34:08.947Z,2.80
2022-09-22T23:36:36.816Z,3.47
2022-09-22T23:39:04.726Z,3.35
2022-09-22T23:41:34.389Z,3.45
2022-09-22T23:44:02.958Z,3.70
2022-09-22T23:46:30.433Z,3.42
2022-09-22T23:49:00.595Z,4.15
2022-09-22T23:51:28.116Z,3.45
2022-09-22T23:53:56.362Z,2.90
2022-09-22T23:56:24.863Z,3.20
2022-09-22T23:58:53.862Z,3.05
